createdAt,value
2017-08-07T00:01:05.728Z,14.90
2017-08-07T00:03:39.474Z,14.90
2017-08-07T00:06:13.676Z,14.80
2017-08-07T00:08:48.448Z,14.70
2017-08-07T00:11:22.529Z,14.60
2017-08-07T00:13:56.652Z,14.70
2017-08-07T00:16:31.448Z,14.70
2017-08-07T00:19:06.256Z,14.60
2017-08-07T00:21:40.805Z,14.60
2017-08-07T00:24:15.128Z,14.60
2017-08-07T00:26:49.112Z,14.50
2017-08-07T00:29:23.877Z,14.50
2017-08-07T00:31:57.992Z,14.50
2017-08-07T00:34:32.407Z,14.50
2017-08-07T00:37:06.326Z,14.50
2017-08-07T00:39:40.241Z,14.50
2017-08-07T00:42:14.130Z,14.50
2017-08-07T00:44:48.231Z,14.60
2017-08-07T00:47:22.975Z,14.50
2017-08-07T00:49:57.020Z,14.50
2017-08-07T00:52:31.113Z,14.50
2017-08-07T00:55:05.787Z,14.40
2017-08-07T00:57:40.506Z,14.40
2017-08-07T01:00:14.407Z,14.30
2017-08-07T01:02:49.076Z,14.40
2017-08-07T01:05:22.932Z,14.40
2017-08-07T01:07:57.030Z,14.40
2017-08-07T01:10:30.895Z,14.40
2017-08-07T01:13:05.093Z,14.40
2017-08-07T01:15:38.965Z,14.40
2017-08-07T01:18:13.421Z,14.30
2017-08-07T01:20:48.101Z,14.30
2017-08-07T01:23:23.018Z,14.20
2017-08-07T01:25:57.017Z,14.30
2017-08-07T01:28:31.039Z,14.20
2017-08-07T01:31:05.047Z,14.20
2017-08-07T01:33:39.157Z,14.20
2017-08-07T01:36:12.876Z,14.20
2017-08-07T01:38:47.511Z,14.20
2017-08-07T01:41:21.458Z,14.20
2017-08-07T01:43:55.396Z,14.10
2017-08-07T01:46:30.075Z,14.00
2017-08-07T01:49:03.957Z,14.00
2017-08-07T01:51:37.971Z,13.90
2017-08-07T01:54:11.752Z,13.90
2017-08-07T01:56:45.510Z,13.90
2017-08-07T01:59:19.328Z,13.90
2017-08-07T02:01:53.381Z,13.80
2017-08-07T02:04:27.314Z,13.70
2017-08-07T02:07:01.165Z,13.60
2017-08-07T02:09:35.156Z,13.60
2017-08-07T02:12:09.771Z,13.50
2017-08-07T02:14:43.701Z,13.50
2017-08-07T02:17:18.231Z,13.60
2017-08-07T02:19:52.054Z,13.60
2017-08-07T02:22:26.028Z,13.60
2017-08-07T02:25:00.807Z,13.50
2017-08-07T02:27:35.286Z,13.60
2017-08-07T02:30:09.828Z,13.50
2017-08-07T02:32:43.545Z,13.50
2017-08-07T02:35:18.414Z,13.50
2017-08-07T02:37:53.200Z,13.40
2017-08-07T02:40:27.923Z,13.40
2017-08-07T02:43:01.773Z,13.40
2017-08-07T02:45:35.802Z,13.40
2017-08-07T02:48:09.717Z,13.50
2017-08-07T02:50:43.598Z,13.50
2017-08-07T02:53:17.643Z,13.50
2017-08-07T02:55:53.852Z,13.50
2017-08-07T02:58:28.588Z,13.50
2017-08-07T03:01:02.507Z,13.40
2017-08-07T03:03:36.272Z,13.50
2017-08-07T03:06:10.331Z,13.40
2017-08-07T03:08:44.485Z,13.40
2017-08-07T03:11:19.396Z,13.30
2017-08-07T03:13:53.718Z,13.30
2017-08-07T03:16:27.827Z,13.20
2017-08-07T03:19:11.654Z,13.00
2017-08-07T03:21:45.826Z,13.00
2017-08-07T03:24:20.494Z,13.10
2017-08-07T03:26:54.205Z,13.00
2017-08-07T03:29:28.829Z,12.60
2017-08-07T03:32:02.535Z,12.50
2017-08-07T03:34:36.356Z,12.40
2017-08-07T03:37:10.099Z,12.50
2017-08-07T03:39:43.958Z,12.70
2017-08-07T03:42:18.586Z,12.80
2017-08-07T03:44:52.537Z,12.80
2017-08-07T03:47:26.469Z,12.70
2017-08-07T03:50:00.339Z,12.80
2017-08-07T03:52:34.113Z,12.70
2017-08-07T03:55:07.922Z,12.60
2017-08-07T03:57:41.656Z,12.60
2017-08-07T04:00:15.604Z,12.70
2017-08-07T04:02:49.888Z,12.50
2017-08-07T04:05:23.863Z,12.60
2017-08-07T04:07:57.955Z,12.60
2017-08-07T04:10:32.954Z,12.70
2017-08-07T04:13:07.098Z,12.60
2017-08-07T04:15:40.864Z,12.70
2017-08-07T04:18:15.325Z,12.50
2017-08-07T04:20:49.993Z,12.20
2017-08-07T04:23:25.276Z,12.20
2017-08-07T04:25:59.015Z,12.30
2017-08-07T04:28:32.806Z,12.40
2017-08-07T04:31:06.925Z,12.00
2017-08-07T04:33:40.984Z,12.20
2017-08-07T04:36:14.806Z,12.40
2017-08-07T04:38:49.704Z,12.20
2017-08-07T04:41:23.789Z,12.30
2017-08-07T04:43:58.442Z,12.40
2017-08-07T04:46:32.928Z,12.40
2017-08-07T04:49:07.514Z,12.40
2017-08-07T04:51:42.437Z,12.40
2017-08-07T04:54:16.449Z,12.50
2017-08-07T04:56:51.224Z,12.50
2017-08-07T04:59:26.086Z,12.30
2017-08-07T05:02:02.565Z,12.30
2017-08-07T05:04:37.528Z,12.40
2017-08-07T05:07:11.523Z,12.40
2017-08-07T05:09:46.213Z,12.40
2017-08-07T05:12:23.617Z,12.40
2017-08-07T05:15:03.521Z,12.40
2017-08-07T05:17:38.971Z,12.10
2017-08-07T05:20:16.301Z,12.10
2017-08-07T05:22:54.290Z,12.10
2017-08-07T05:25:29.391Z,12.30
2017-08-07T05:28:03.203Z,12.30
2017-08-07T05:30:37.090Z,12.40
2017-08-07T05:33:10.950Z,12.60
2017-08-07T05:35:44.722Z,12.80
2017-08-07T05:38:20.889Z,13.10
2017-08-07T05:40:58.167Z,13.10
2017-08-07T05:43:35.888Z,13.10
2017-08-07T05:46:13.013Z,13.20
2017-08-07T05:48:47.923Z,13.10
2017-08-07T05:51:21.933Z,13.10
2017-08-07T05:53:56.629Z,13.20
2017-08-07T05:56:31.329Z,13.10
2017-08-07T05:59:05.066Z,13.10
2017-08-07T06:01:38.861Z,13.20
2017-08-07T06:04:12.991Z,13.30
2017-08-07T06:06:48.960Z,13.20
2017-08-07T06:09:22.930Z,13.30
2017-08-07T06:11:57.895Z,13.60
2017-08-07T06:14:31.853Z,13.60
2017-08-07T06:17:05.784Z,13.70
2017-08-07T06:19:39.815Z,13.60
2017-08-07T06:22:13.790Z,13.60
2017-08-07T06:24:47.750Z,13.60
2017-08-07T06:27:23.029Z,13.40
2017-08-07T06:29:56.947Z,13.30
2017-08-07T06:32:31.819Z,13.90
2017-08-07T06:35:05.730Z,13.90
2017-08-07T06:37:40.388Z,14.00
2017-08-07T06:40:20.040Z,14.00
2017-08-07T06:42:53.988Z,14.10
2017-08-07T06:45:28.555Z,14.10
2017-08-07T06:48:02.403Z,14.10
2017-08-07T06:50:36.195Z,14.20
2017-08-07T06:53:12.050Z,14.40
2017-08-07T06:55:46.028Z,14.30
2017-08-07T06:58:20.363Z,14.50
2017-08-07T07:00:54.371Z,14.80
2017-08-07T07:03:28.238Z,15.10
2017-08-07T07:06:02.365Z,15.30
2017-08-07T07:08:36.550Z,15.30
2017-08-07T07:11:10.401Z,15.30
2017-08-07T07:13:44.258Z,15.30
2017-08-07T07:16:17.983Z,15.20
2017-08-07T07:18:52.210Z,15.30
2017-08-07T07:21:26.986Z,15.40
2017-08-07T07:24:00.849Z,15.70
2017-08-07T07:26:35.589Z,15.90
2017-08-07T07:29:09.751Z,16.00
2017-08-07T07:31:44.474Z,16.00
2017-08-07T07:34:19.087Z,16.00
2017-08-07T07:36:54.069Z,16.00
2017-08-07T07:39:28.976Z,16.20
2017-08-07T07:42:02.946Z,16.20
2017-08-07T07:44:36.783Z,16.20
2017-08-07T07:47:10.628Z,16.40
2017-08-07T07:49:44.373Z,16.40
2017-08-07T07:52:18.968Z,16.40
2017-08-07T07:54:53.531Z,16.50
2017-08-07T07:57:27.427Z,16.80
2017-08-07T08:00:02.133Z,17.10
2017-08-07T08:02:35.754Z,17.10
2017-08-07T08:05:09.637Z,16.90
2017-08-07T08:07:43.616Z,17.00
2017-08-07T08:10:17.800Z,17.30
2017-08-07T08:12:51.787Z,17.30
2017-08-07T08:15:25.534Z,17.30
2017-08-07T08:17:59.437Z,17.40
2017-08-07T08:20:33.442Z,17.40
2017-08-07T08:23:08.151Z,17.50
2017-08-07T08:25:42.019Z,17.50
2017-08-07T08:28:16.317Z,17.70
2017-08-07T08:30:51.341Z,17.90
2017-08-07T08:33:25.338Z,18.00
2017-08-07T08:35:59.510Z,17.50
2017-08-07T08:38:33.919Z,17.80
2017-08-07T08:41:07.771Z,18.00
2017-08-07T08:43:41.816Z,18.20
2017-08-07T08:46:15.572Z,18.30
2017-08-07T08:48:49.448Z,18.60
2017-08-07T08:51:23.171Z,18.60
2017-08-07T08:53:57.036Z,18.50
2017-08-07T08:56:32.458Z,18.90
2017-08-07T08:59:07.052Z,19.10
2017-08-07T09:01:41.741Z,19.10
2017-08-07T09:04:15.650Z,19.20
2017-08-07T09:06:50.356Z,19.40
2017-08-07T09:09:24.890Z,19.30
2017-08-07T09:11:59.953Z,19.50
2017-08-07T09:14:34.178Z,19.50
2017-08-07T09:17:08.933Z,19.90
2017-08-07T09:19:42.749Z,19.90
2017-08-07T09:22:16.709Z,20.00
2017-08-07T09:24:50.426Z,19.90
2017-08-07T09:27:24.180Z,20.00
2017-08-07T09:29:59.397Z,20.10
2017-08-07T09:32:33.259Z,20.30
2017-08-07T09:35:07.964Z,20.40
2017-08-07T09:37:43.209Z,20.30
2017-08-07T09:40:17.213Z,20.50
2017-08-07T09:42:51.931Z,20.40
2017-08-07T09:45:28.372Z,21.00
2017-08-07T09:48:02.290Z,21.00
2017-08-07T09:50:36.894Z,20.90
2017-08-07T09:53:11.652Z,20.90
2017-08-07T09:55:45.789Z,20.80
2017-08-07T09:58:20.532Z,20.90
2017-08-07T10:00:54.872Z,20.90
2017-08-07T10:03:30.433Z,21.00
2017-08-07T10:06:05.297Z,21.00
2017-08-07T10:08:39.560Z,20.90
2017-08-07T10:11:14.510Z,21.20
2017-08-07T10:13:48.469Z,21.50
2017-08-07T10:16:22.054Z,21.60
2017-08-07T10:18:56.080Z,21.70
2017-08-07T10:21:29.663Z,21.40
2017-08-07T10:24:03.668Z,21.70
2017-08-07T10:26:37.430Z,21.60
2017-08-07T10:29:11.287Z,21.40
2017-08-07T10:31:45.335Z,21.30
2017-08-07T10:34:19.416Z,21.40
2017-08-07T10:36:53.524Z,22.10
2017-08-07T10:39:27.771Z,22.00
2017-08-07T10:42:02.799Z,21.70
2017-08-07T10:44:37.574Z,22.20
2017-08-07T10:47:13.514Z,22.10
2017-08-07T10:49:48.281Z,21.80
2017-08-07T10:52:23.811Z,22.30
2017-08-07T10:54:57.817Z,22.50
2017-08-07T10:57:31.833Z,22.60
2017-08-07T11:00:06.692Z,22.70
2017-08-07T11:02:41.989Z,22.90
2017-08-07T11:05:16.970Z,22.80
2017-08-07T11:07:50.999Z,22.80
2017-08-07T11:10:24.965Z,22.90
2017-08-07T11:12:59.209Z,23.00
2017-08-07T11:15:33.384Z,23.20
2017-08-07T11:18:08.475Z,23.20
2017-08-07T11:20:42.461Z,23.20
2017-08-07T11:23:17.209Z,23.00
2017-08-07T11:25:51.200Z,22.80
2017-08-07T11:28:25.962Z,22.60
2017-08-07T11:31:00.611Z,23.10
2017-08-07T11:33:34.586Z,23.10
2017-08-07T11:36:09.355Z,22.80
2017-08-07T11:38:43.325Z,22.80
2017-08-07T11:41:17.519Z,23.00
2017-08-07T11:43:52.300Z,23.20
2017-08-07T11:46:26.236Z,23.20
2017-08-07T11:49:02.027Z,23.50
2017-08-07T11:51:35.699Z,23.20
2017-08-07T11:54:11.382Z,23.00
2017-08-07T11:56:45.223Z,23.30
2017-08-07T11:59:19.002Z,23.30
2017-08-07T12:01:53.096Z,23.40
2017-08-07T12:04:28.170Z,23.40
2017-08-07T12:07:02.049Z,23.40
2017-08-07T12:09:36.154Z,23.50
2017-08-07T12:12:10.508Z,23.60
2017-08-07T12:14:44.752Z,23.70
2017-08-07T12:17:18.771Z,23.40
2017-08-07T12:19:52.790Z,23.60
2017-08-07T12:22:27.149Z,23.40
2017-08-07T12:25:01.415Z,23.50
2017-08-07T12:27:35.980Z,23.30
2017-08-07T12:30:11.431Z,23.40
2017-08-07T12:32:46.193Z,23.40
2017-08-07T12:35:20.746Z,23.50
2017-08-07T12:37:56.318Z,23.30
2017-08-07T12:40:30.381Z,23.50
2017-08-07T12:43:05.534Z,23.40
2017-08-07T12:45:40.522Z,23.30
2017-08-07T12:48:14.998Z,23.50
2017-08-07T12:50:49.195Z,23.60
2017-08-07T12:53:23.116Z,23.70
2017-08-07T12:55:56.958Z,23.50
2017-08-07T12:58:31.834Z,24.00
2017-08-07T13:01:05.946Z,24.00
2017-08-07T13:03:41.942Z,23.90
2017-08-07T13:06:15.656Z,23.90
2017-08-07T13:08:49.819Z,23.90
2017-08-07T13:11:24.638Z,23.80
2017-08-07T13:13:58.774Z,23.80
2017-08-07T13:16:32.700Z,23.80
2017-08-07T13:19:06.719Z,23.90
2017-08-07T13:21:40.909Z,23.90
2017-08-07T13:24:15.449Z,23.80
2017-08-07T13:26:50.467Z,23.90
2017-08-07T13:29:24.238Z,23.80
2017-08-07T13:31:59.154Z,23.80
2017-08-07T13:34:33.326Z,23.80
2017-08-07T13:37:07.546Z,23.80
2017-08-07T13:39:41.484Z,23.90
2017-08-07T13:42:15.953Z,24.00
2017-08-07T13:44:50.087Z,24.00
2017-08-07T13:47:24.053Z,23.80
2017-08-07T13:49:58.020Z,23.60
2017-08-07T13:52:33.888Z,23.90
2017-08-07T13:55:07.659Z,23.90
2017-08-07T13:57:42.699Z,24.00
2017-08-07T14:00:16.635Z,23.90
2017-08-07T14:02:51.574Z,24.00
2017-08-07T14:05:27.825Z,24.10
2017-08-07T14:08:01.421Z,24.20
2017-08-07T14:10:36.251Z,23.90
2017-08-07T14:13:10.394Z,23.90
2017-08-07T14:15:44.179Z,23.80
2017-08-07T14:18:18.925Z,24.10
2017-08-07T14:20:54.064Z,24.00
2017-08-07T14:23:28.243Z,24.10
2017-08-07T14:26:02.170Z,24.30
2017-08-07T14:28:36.732Z,24.40
2017-08-07T14:31:11.417Z,24.30
2017-08-07T14:33:45.826Z,24.30
2017-08-07T14:36:21.617Z,24.20
2017-08-07T14:38:55.784Z,24.20
2017-08-07T14:41:30.365Z,24.00
2017-08-07T14:44:05.107Z,24.20
2017-08-07T14:46:39.720Z,24.30
2017-08-07T14:49:14.556Z,24.30
2017-08-07T14:51:48.678Z,24.30
2017-08-07T14:54:23.648Z,24.20
2017-08-07T14:56:58.720Z,24.20
2017-08-07T14:59:32.667Z,24.30
2017-08-07T15:02:06.784Z,24.00
2017-08-07T15:04:41.602Z,24.10
2017-08-07T15:07:15.659Z,24.10
2017-08-07T15:09:50.381Z,24.10
2017-08-07T15:12:24.842Z,24.10
2017-08-07T15:14:58.885Z,24.10
2017-08-07T15:17:33.589Z,24.10
2017-08-07T15:20:07.699Z,24.00
2017-08-07T15:22:41.647Z,24.20
2017-08-07T15:25:15.730Z,23.80
2017-08-07T15:27:49.879Z,23.90
2017-08-07T15:30:23.948Z,23.80
2017-08-07T15:32:58.570Z,23.90
2017-08-07T15:35:33.425Z,23.80
2017-08-07T15:38:07.354Z,23.90
2017-08-07T15:40:41.162Z,23.80
2017-08-07T15:43:15.288Z,23.90
2017-08-07T15:45:49.834Z,24.00
2017-08-07T15:48:24.448Z,24.10
2017-08-07T15:50:58.900Z,24.00
2017-08-07T15:53:32.520Z,24.10
2017-08-07T15:56:06.242Z,23.90
2017-08-07T15:58:40.020Z,23.90
2017-08-07T16:01:13.917Z,23.80
2017-08-07T16:03:48.690Z,24.00
2017-08-07T16:06:22.501Z,24.00
2017-08-07T16:08:59.802Z,24.10
2017-08-07T16:11:34.586Z,23.90
2017-08-07T16:14:09.805Z,24.10
2017-08-07T16:16:44.108Z,24.10
2017-08-07T16:19:18.149Z,24.20
2017-08-07T16:21:52.284Z,24.10
2017-08-07T16:24:30.450Z,24.00
2017-08-07T16:27:05.268Z,24.00
2017-08-07T16:29:53.565Z,24.00
2017-08-07T16:32:30.310Z,24.00
2017-08-07T16:35:05.493Z,23.90
2017-08-07T16:37:44.370Z,24.00
2017-08-07T16:40:22.976Z,24.00
2017-08-07T16:43:00.144Z,24.00
2017-08-07T16:45:39.150Z,24.20
2017-08-07T16:48:14.614Z,24.10
2017-08-07T16:50:54.523Z,24.10
2017-08-07T16:53:28.503Z,23.80
2017-08-07T16:56:05.145Z,23.60
2017-08-07T16:58:40.240Z,23.50
2017-08-07T17:01:17.184Z,23.60
2017-08-07T17:03:54.328Z,23.90
2017-08-07T17:06:35.165Z,23.90
2017-08-07T17:14:38.747Z,23.30
2017-08-07T17:17:15.770Z,23.50
2017-08-07T17:19:50.648Z,23.50
2017-08-07T17:22:27.770Z,23.40
2017-08-07T17:25:04.050Z,23.40
2017-08-07T17:27:44.675Z,23.60
2017-08-07T17:30:20.742Z,23.60
2017-08-07T17:32:56.366Z,23.50
2017-08-07T17:35:45.071Z,23.50
2017-08-07T17:38:19.546Z,23.30
2017-08-07T17:40:53.993Z,23.20
2017-08-07T17:43:27.836Z,23.20
2017-08-07T17:46:01.797Z,23.20
2017-08-07T17:48:36.602Z,23.00
2017-08-07T17:51:10.664Z,23.00
2017-08-07T17:53:44.330Z,23.00
2017-08-07T17:56:18.175Z,22.90
2017-08-07T17:58:52.715Z,22.80
2017-08-07T18:01:26.653Z,22.80
2017-08-07T18:04:00.505Z,22.80
2017-08-07T18:06:34.443Z,22.70
2017-08-07T18:09:17.035Z,22.70
2017-08-07T18:14:43.341Z,22.70
2017-08-07T18:17:23.957Z,22.70
2017-08-07T18:19:59.962Z,22.60
2017-08-07T18:22:41.422Z,22.60
2017-08-07T18:25:21.238Z,22.70
2017-08-07T18:27:59.438Z,22.60
2017-08-07T18:30:33.398Z,22.50
2017-08-07T18:33:14.235Z,22.40
2017-08-07T18:38:34.440Z,22.40
2017-08-07T18:41:10.232Z,22.30
2017-08-07T18:43:47.817Z,22.30
2017-08-07T18:46:22.288Z,22.20
2017-08-07T18:48:59.301Z,22.10
2017-08-07T18:51:35.022Z,22.10
2017-08-07T18:54:10.087Z,22.00
2017-08-07T18:56:45.025Z,21.90
2017-08-07T18:59:20.927Z,21.80
2017-08-07T19:01:57.969Z,21.80
2017-08-07T19:04:36.228Z,21.80
2017-08-07T19:07:12.051Z,21.60
2017-08-07T19:09:46.885Z,21.60
2017-08-07T19:12:20.621Z,21.60
2017-08-07T19:15:08.475Z,21.50
2017-08-07T19:18:00.274Z,21.50
2017-08-07T19:20:38.376Z,21.50
2017-08-07T19:23:13.331Z,21.30
2017-08-07T19:25:53.913Z,21.30
2017-08-07T19:28:29.115Z,21.30
2017-08-07T19:31:03.079Z,21.20
2017-08-07T19:33:36.921Z,21.10
2017-08-07T19:36:13.576Z,21.10
2017-08-07T19:38:48.947Z,20.90
2017-08-07T19:41:22.734Z,21.00
2017-08-07T19:44:01.922Z,20.90
2017-08-07T19:46:36.155Z,20.90
2017-08-07T19:49:10.587Z,20.90
2017-08-07T19:51:51.689Z,20.80
2017-08-07T19:54:25.912Z,20.80
2017-08-07T19:57:01.419Z,20.80
2017-08-07T19:59:39.391Z,20.60
2017-08-07T20:02:16.947Z,20.60
2017-08-07T20:04:52.872Z,20.60
2017-08-07T20:07:32.861Z,20.50
2017-08-07T20:10:12.227Z,20.50
2017-08-07T20:12:47.739Z,20.40
2017-08-07T20:15:24.230Z,20.30
2017-08-07T20:18:00.637Z,20.20
2017-08-07T20:20:35.799Z,20.20
2017-08-07T20:23:11.161Z,20.20
2017-08-07T20:25:47.091Z,20.20
2017-08-07T20:28:25.087Z,20.20
2017-08-07T20:31:05.675Z,20.10
2017-08-07T20:33:41.215Z,20.00
2017-08-07T20:36:21.874Z,20.00
2017-08-07T20:38:58.492Z,20.00
2017-08-07T20:41:32.854Z,20.00
2017-08-07T20:44:08.688Z,19.80
2017-08-07T20:46:42.929Z,19.80
2017-08-07T20:49:16.647Z,19.80
2017-08-07T20:51:50.440Z,19.80
2017-08-07T20:54:27.869Z,19.70
2017-08-07T20:57:01.824Z,19.70
2017-08-07T20:59:36.782Z,19.60
2017-08-07T21:02:11.398Z,19.60
2017-08-07T21:04:50.236Z,19.60
2017-08-07T21:07:31.823Z,19.70
2017-08-07T21:10:08.454Z,19.50
2017-08-07T21:12:43.338Z,19.40
2017-08-07T21:15:17.235Z,19.40
2017-08-07T21:17:55.216Z,19.30
2017-08-07T21:20:29.795Z,19.30
2017-08-07T21:23:05.733Z,19.40
2017-08-07T21:25:41.190Z,19.40
2017-08-07T21:28:16.095Z,19.30
2017-08-07T21:30:54.271Z,19.30
2017-08-07T21:33:28.590Z,19.30
2017-08-07T21:36:07.000Z,19.20
2017-08-07T21:38:47.154Z,19.10
2017-08-07T21:41:24.951Z,19.10
2017-08-07T21:43:59.987Z,19.10
2017-08-07T21:49:50.101Z,19.10
2017-08-07T21:52:26.936Z,19.10
2017-08-07T21:55:01.528Z,19.00
2017-08-07T21:57:38.674Z,18.90
2017-08-07T22:00:13.874Z,18.80
2017-08-07T22:02:52.413Z,18.70
2017-08-07T22:05:28.271Z,18.60
2017-08-07T22:08:03.519Z,18.60
2017-08-07T22:10:45.917Z,18.40
2017-08-07T22:13:23.655Z,18.40
2017-08-07T22:16:06.932Z,18.40
2017-08-07T22:18:41.946Z,18.30
2017-08-07T22:21:25.555Z,18.30
2017-08-07T22:24:01.084Z,18.20
2017-08-07T22:26:37.936Z,18.20
2017-08-07T22:29:12.521Z,18.10
2017-08-07T22:31:46.989Z,18.10
2017-08-07T22:34:21.037Z,18.10
2017-08-07T22:36:54.980Z,18.10
2017-08-07T22:39:29.472Z,17.90
2017-08-07T22:42:04.251Z,17.90
2017-08-07T22:44:39.053Z,17.90
2017-08-07T22:49:54.118Z,17.90
2017-08-07T22:52:28.111Z,17.80
2017-08-07T22:55:03.081Z,17.60
2017-08-07T22:57:37.562Z,17.60
2017-08-07T23:00:13.248Z,17.70
2017-08-07T23:02:48.324Z,17.60
2017-08-07T23:05:22.716Z,17.60
2017-08-07T23:07:57.928Z,17.50
2017-08-07T23:10:32.293Z,17.50
2017-08-07T23:13:08.721Z,17.40
2017-08-07T23:15:43.374Z,17.40
2017-08-07T23:18:18.832Z,17.40
2017-08-07T23:20:53.520Z,17.40
2017-08-07T23:23:29.117Z,17.30
2017-08-07T23:26:08.053Z,16.90
2017-08-07T23:28:45.334Z,16.80
2017-08-07T23:31:27.779Z,17.00
2017-08-07T23:34:08.191Z,17.10
2017-08-07T23:36:47.682Z,17.00
2017-08-07T23:39:27.972Z,17.00
2017-08-07T23:42:09.063Z,17.10
2017-08-07T23:44:53.178Z,17.00
2017-08-07T23:47:32.272Z,17.00
2017-08-07T23:50:08.014Z,17.00
2017-08-07T23:52:45.646Z,17.00
2017-08-07T23:55:23.238Z,16.90
2017-08-07T23:58:01.601Z,17.00
